createdAt,value
2023-04-30T00:01:14.008Z,8.60
2023-04-30T00:03:40.980Z,8.68
2023-04-30T00:06:08.106Z,8.64
2023-04-30T00:08:37.913Z,8.64
2023-04-30T00:11:05.092Z,8.73
2023-04-30T00:13:32.075Z,8.69
2023-04-30T00:15:59.082Z,8.71
2023-04-30T00:18:26.030Z,8.71
2023-04-30T00:20:53.519Z,8.67
2023-04-30T00:23:20.587Z,8.60
2023-04-30T00:25:47.496Z,8.62
2023-04-30T00:28:14.488Z,8.49
2023-04-30T00:30:41.539Z,8.53
2023-04-30T00:33:08.631Z,8.41
2023-04-30T00:35:35.657Z,8.27
2023-04-30T00:38:02.655Z,8.21
2023-04-30T00:40:29.692Z,8.00
2023-04-30T00:42:56.798Z,7.77
2023-04-30T00:45:23.704Z,7.83
2023-04-30T00:47:50.898Z,7.82
2023-04-30T00:50:18.049Z,7.85
2023-04-30T00:52:45.487Z,7.92
2023-04-30T00:55:13.421Z,7.97
2023-04-30T00:57:43.285Z,7.77
2023-04-30T01:00:11.442Z,7.54
2023-04-30T01:02:38.844Z,7.49
2023-04-30T01:05:07.259Z,7.28
2023-04-30T01:07:36.569Z,7.27
2023-04-30T01:10:03.778Z,7.31
2023-04-30T01:13:04.228Z,7.45
2023-04-30T01:15:47.941Z,7.52
2023-04-30T01:18:44.306Z,7.30
2023-04-30T01:21:13.989Z,7.27
2023-04-30T01:23:55.957Z,7.32
2023-04-30T01:26:54.297Z,7.37
2023-04-30T01:29:23.986Z,7.36
2023-04-30T01:31:51.146Z,7.34
2023-04-30T01:34:18.204Z,7.27
2023-04-30T01:37:12.850Z,7.32
2023-04-30T01:40:09.987Z,7.22
2023-04-30T01:42:49.216Z,7.14
2023-04-30T01:45:43.008Z,6.98
2023-04-30T01:48:43.663Z,7.09
2023-04-30T01:51:34.011Z,7.16
2023-04-30T01:54:24.568Z,7.04
2023-04-30T01:57:07.266Z,7.04
2023-04-30T01:59:36.494Z,7.16
2023-04-30T02:02:04.282Z,7.17
2023-04-30T02:04:31.271Z,6.88
2023-04-30T02:06:58.914Z,6.95
2023-04-30T02:09:26.080Z,6.84
2023-04-30T02:11:52.940Z,6.96
2023-04-30T02:14:20.591Z,6.92
2023-04-30T02:16:47.625Z,6.70
2023-04-30T02:19:14.523Z,6.81
2023-04-30T02:21:41.443Z,6.41
2023-04-30T02:24:08.723Z,6.95
2023-04-30T02:26:35.616Z,6.81
2023-04-30T02:29:02.696Z,6.80
2023-04-30T02:31:29.795Z,6.61
2023-04-30T02:33:56.786Z,6.68
2023-04-30T02:36:23.707Z,6.61
2023-04-30T02:38:50.620Z,6.52
2023-04-30T02:41:17.580Z,6.44
2023-04-30T02:43:44.503Z,6.64
2023-04-30T02:46:11.565Z,6.35
2023-04-30T02:48:38.599Z,6.45
2023-04-30T02:51:05.857Z,6.24
2023-04-30T02:53:32.818Z,6.41
2023-04-30T02:55:59.792Z,6.14
2023-04-30T02:58:26.721Z,6.08
2023-04-30T03:00:53.830Z,6.19
2023-04-30T03:03:21.656Z,5.86
2023-04-30T03:05:48.661Z,6.06
2023-04-30T03:08:16.633Z,6.08
2023-04-30T03:10:44.304Z,6.02
2023-04-30T03:13:11.279Z,6.01
2023-04-30T03:15:38.318Z,6.14
2023-04-30T03:18:05.639Z,6.21
2023-04-30T03:20:32.645Z,5.99
2023-04-30T03:22:59.687Z,5.90
2023-04-30T03:25:26.771Z,5.70
2023-04-30T03:27:53.779Z,5.86
2023-04-30T03:30:20.852Z,5.78
2023-04-30T03:32:47.904Z,5.59
2023-04-30T03:35:16.365Z,5.22
2023-04-30T03:37:43.294Z,5.35
2023-04-30T03:40:11.780Z,5.49
2023-04-30T03:42:38.826Z,5.43
2023-04-30T03:45:06.412Z,5.33
2023-04-30T03:47:33.886Z,5.33
2023-04-30T03:50:01.222Z,5.65
2023-04-30T03:52:28.217Z,5.60
2023-04-30T03:54:55.310Z,5.52
2023-04-30T03:57:22.289Z,5.55
2023-04-30T03:59:51.435Z,5.74
2023-04-30T04:02:18.597Z,5.72
2023-04-30T04:04:45.785Z,5.55
2023-04-30T04:07:12.964Z,5.64
2023-04-30T04:09:40.061Z,5.59
2023-04-30T04:12:07.558Z,5.51
2023-04-30T04:14:34.700Z,5.69
2023-04-30T04:17:05.488Z,5.56
2023-04-30T04:19:32.925Z,5.71
2023-04-30T04:21:59.905Z,5.26
2023-04-30T04:24:27.180Z,5.52
2023-04-30T04:26:54.230Z,5.54
2023-04-30T04:29:21.235Z,5.45
2023-04-30T04:31:49.299Z,5.42
2023-04-30T04:34:17.054Z,5.60
2023-04-30T04:36:44.070Z,5.57
2023-04-30T04:39:11.833Z,5.71
2023-04-30T04:41:38.696Z,5.65
2023-04-30T04:44:06.543Z,5.71
2023-04-30T04:46:34.806Z,5.77
2023-04-30T04:49:02.198Z,5.92
2023-04-30T04:51:29.493Z,5.94
2023-04-30T04:53:56.408Z,5.92
2023-04-30T04:56:23.527Z,6.07
2023-04-30T04:58:50.447Z,6.21
2023-04-30T05:01:17.520Z,6.08
2023-04-30T05:03:47.715Z,6.10
2023-04-30T05:06:14.811Z,6.49
2023-04-30T05:08:42.567Z,6.32
2023-04-30T05:11:09.707Z,6.56
2023-04-30T05:13:36.746Z,6.79
2023-04-30T05:16:04.374Z,6.87
2023-04-30T05:18:31.428Z,7.03
2023-04-30T05:20:58.430Z,6.80
2023-04-30T05:23:25.897Z,7.23
2023-04-30T05:25:53.428Z,7.06
2023-04-30T05:28:20.346Z,7.32
2023-04-30T05:30:47.302Z,7.35
2023-04-30T05:33:14.474Z,7.49
2023-04-30T05:35:41.918Z,7.76
2023-04-30T05:38:08.924Z,7.80
2023-04-30T05:40:37.267Z,8.15
2023-04-30T05:43:04.347Z,7.94
2023-04-30T05:45:31.444Z,8.06
2023-04-30T05:47:58.404Z,8.19
2023-04-30T05:50:25.399Z,8.21
2023-04-30T05:52:52.315Z,8.26
2023-04-30T05:55:19.241Z,8.10
2023-04-30T05:57:46.165Z,8.37
2023-04-30T06:00:13.936Z,8.24
2023-04-30T06:02:41.248Z,8.19
2023-04-30T06:05:09.066Z,8.56
2023-04-30T06:07:36.256Z,8.45
2023-04-30T06:10:03.927Z,8.53
2023-04-30T06:12:31.668Z,8.31
2023-04-30T06:14:58.910Z,9.10
2023-04-30T06:17:26.099Z,8.84
2023-04-30T06:19:53.388Z,9.05
2023-04-30T06:22:20.475Z,9.22
2023-04-30T06:24:47.343Z,9.29
2023-04-30T06:27:14.265Z,9.37
2023-04-30T06:29:41.224Z,9.48
2023-04-30T06:32:08.639Z,9.69
2023-04-30T06:34:36.414Z,9.78
2023-04-30T06:37:03.540Z,10.08
2023-04-30T06:39:30.784Z,10.13
2023-04-30T06:41:58.890Z,10.27
2023-04-30T06:44:28.197Z,10.13
2023-04-30T06:46:55.394Z,10.12
2023-04-30T06:49:22.991Z,10.28
2023-04-30T06:51:50.015Z,10.58
2023-04-30T06:54:16.985Z,10.23
2023-04-30T06:56:44.668Z,10.34
2023-04-30T06:59:12.270Z,10.32
2023-04-30T07:01:39.366Z,10.63
2023-04-30T07:04:06.550Z,10.89
2023-04-30T07:06:34.207Z,11.17
2023-04-30T07:09:02.273Z,11.42
2023-04-30T07:11:29.212Z,11.56
2023-04-30T07:13:56.817Z,11.73
2023-04-30T07:16:26.236Z,12.02
2023-04-30T07:18:53.268Z,12.11
2023-04-30T07:21:20.225Z,12.35
2023-04-30T07:23:48.620Z,12.32
2023-04-30T07:26:15.904Z,12.39
2023-04-30T07:28:42.916Z,12.63
2023-04-30T07:31:09.923Z,12.74
2023-04-30T07:33:36.923Z,12.91
2023-04-30T07:36:03.965Z,12.96
2023-04-30T07:38:31.087Z,12.76
2023-04-30T07:40:57.949Z,12.40
2023-04-30T07:43:25.028Z,12.18
2023-04-30T07:45:53.439Z,12.23
2023-04-30T07:48:21.384Z,12.31
2023-04-30T07:50:50.549Z,12.51
2023-04-30T07:53:18.338Z,12.36
2023-04-30T07:55:45.379Z,12.57
2023-04-30T07:58:15.287Z,12.61
2023-04-30T08:00:42.269Z,13.01
2023-04-30T08:03:09.381Z,12.92
2023-04-30T08:05:36.592Z,13.45
2023-04-30T08:08:04.051Z,13.27
2023-04-30T08:10:31.993Z,13.25
2023-04-30T08:12:58.888Z,12.90
2023-04-30T08:15:27.556Z,12.49
2023-04-30T08:17:55.277Z,12.68
2023-04-30T08:20:23.569Z,13.14
2023-04-30T08:22:51.170Z,13.27
2023-04-30T08:25:18.126Z,13.65
2023-04-30T08:27:45.080Z,13.74
2023-04-30T08:30:12.266Z,14.08
2023-04-30T08:32:39.240Z,13.80
2023-04-30T08:35:07.502Z,13.76
2023-04-30T08:37:34.881Z,14.17
2023-04-30T08:40:01.757Z,14.18
2023-04-30T08:42:36.598Z,14.34
2023-04-30T08:45:04.936Z,14.39
2023-04-30T08:47:31.956Z,14.47
2023-04-30T08:49:58.846Z,14.19
2023-04-30T08:52:28.770Z,14.38
2023-04-30T08:54:58.018Z,14.62
2023-04-30T08:57:25.180Z,14.63
2023-04-30T08:59:52.067Z,14.68
2023-04-30T09:02:19.019Z,14.47
2023-04-30T09:04:46.771Z,14.44
2023-04-30T09:07:14.528Z,14.86
2023-04-30T09:09:41.579Z,14.90
2023-04-30T09:12:19.762Z,14.66
2023-04-30T09:15:03.569Z,14.84
2023-04-30T09:17:31.485Z,14.69
2023-04-30T09:20:14.083Z,14.88
2023-04-30T09:22:42.566Z,15.22
2023-04-30T09:25:11.350Z,15.72
2023-04-30T09:27:38.248Z,15.99
2023-04-30T09:30:06.330Z,16.18
2023-04-30T09:32:33.287Z,16.39
2023-04-30T09:35:00.635Z,16.48
2023-04-30T09:37:41.103Z,16.62
2023-04-30T09:40:09.001Z,16.52
2023-04-30T09:42:35.989Z,16.71
2023-04-30T09:45:05.369Z,16.77
2023-04-30T09:47:33.510Z,16.62
2023-04-30T09:50:01.013Z,16.36
2023-04-30T09:52:27.951Z,16.28
2023-04-30T09:54:54.894Z,16.35
2023-04-30T09:57:24.353Z,16.26
2023-04-30T09:59:53.409Z,16.53
2023-04-30T10:02:23.923Z,16.69
2023-04-30T10:04:58.405Z,16.80
2023-04-30T10:07:32.196Z,17.07
2023-04-30T10:10:11.717Z,17.45
2023-04-30T10:12:52.280Z,17.61
2023-04-30T10:15:26.705Z,17.72
2023-04-30T10:18:03.707Z,17.74
2023-04-30T10:20:35.444Z,17.79
2023-04-30T10:23:02.672Z,17.71
2023-04-30T10:25:30.180Z,17.82
2023-04-30T10:27:57.211Z,18.04
2023-04-30T10:30:24.350Z,18.38
2023-04-30T10:33:15.689Z,18.38
2023-04-30T10:36:06.615Z,18.15
2023-04-30T10:38:34.646Z,18.08
2023-04-30T10:41:02.519Z,18.02
2023-04-30T10:43:34.971Z,18.42
2023-04-30T10:46:02.854Z,18.44
2023-04-30T10:48:31.184Z,18.72
2023-04-30T10:50:59.790Z,18.94
2023-04-30T10:53:31.274Z,18.83
2023-04-30T10:56:06.501Z,18.89
2023-04-30T10:58:39.582Z,19.27
2023-04-30T11:01:13.737Z,19.41
2023-04-30T11:03:43.361Z,19.39
2023-04-30T11:06:14.690Z,19.50
2023-04-30T11:08:46.773Z,19.52
2023-04-30T11:11:23.798Z,19.50
2023-04-30T11:14:01.702Z,19.66
2023-04-30T11:16:34.859Z,19.81
2023-04-30T11:19:11.992Z,19.74
2023-04-30T11:21:45.062Z,19.87
2023-04-30T11:24:13.300Z,19.73
2023-04-30T11:27:08.854Z,19.42
2023-04-30T11:29:36.582Z,19.33
2023-04-30T11:32:05.635Z,19.17
2023-04-30T11:34:35.025Z,19.19
2023-04-30T11:37:03.416Z,19.71
2023-04-30T11:39:35.820Z,19.14
2023-04-30T11:42:03.185Z,19.20
2023-04-30T11:44:30.191Z,19.41
2023-04-30T11:46:57.338Z,19.73
2023-04-30T11:49:24.281Z,20.07
2023-04-30T11:51:52.336Z,20.09
2023-04-30T11:54:19.863Z,19.62
2023-04-30T11:56:48.584Z,19.02
2023-04-30T11:59:17.243Z,19.39
2023-04-30T12:01:44.699Z,19.21
2023-04-30T12:04:12.198Z,18.98
2023-04-30T12:06:39.799Z,19.37
2023-04-30T12:09:09.293Z,19.82
2023-04-30T12:11:36.666Z,20.09
2023-04-30T12:14:04.349Z,19.98
2023-04-30T12:16:49.308Z,20.02
2023-04-30T12:19:21.027Z,20.19
2023-04-30T12:21:49.074Z,20.34
2023-04-30T12:24:18.323Z,20.92
2023-04-30T12:26:46.008Z,21.09
2023-04-30T12:29:18.097Z,21.35
2023-04-30T12:31:46.080Z,21.46
2023-04-30T12:34:15.029Z,21.74
2023-04-30T12:36:45.335Z,20.84
2023-04-30T12:39:16.018Z,20.69
2023-04-30T12:41:45.872Z,20.73
2023-04-30T12:44:25.257Z,20.59
2023-04-30T12:46:57.144Z,20.72
2023-04-30T12:49:33.842Z,20.99
2023-04-30T12:52:04.764Z,21.21
2023-04-30T12:54:35.046Z,21.52
2023-04-30T12:57:07.615Z,21.55
2023-04-30T13:00:00.948Z,21.41
2023-04-30T13:02:32.050Z,21.31
2023-04-30T13:04:59.426Z,21.21
2023-04-30T13:07:26.456Z,21.43
2023-04-30T13:09:53.706Z,21.57
2023-04-30T13:12:20.826Z,21.23
2023-04-30T13:14:47.795Z,20.78
2023-04-30T13:17:14.823Z,20.76
2023-04-30T13:19:41.816Z,21.20
2023-04-30T13:22:08.705Z,21.48
2023-04-30T13:24:35.764Z,21.40
2023-04-30T13:27:04.032Z,21.60
2023-04-30T13:29:31.811Z,21.35
2023-04-30T13:31:59.248Z,20.76
2023-04-30T13:34:29.393Z,20.25
2023-04-30T13:36:56.483Z,20.53
2023-04-30T13:39:23.409Z,20.88
2023-04-30T13:41:50.575Z,21.27
2023-04-30T13:44:17.481Z,21.48
2023-04-30T13:46:45.533Z,21.43
2023-04-30T13:49:12.480Z,21.32
2023-04-30T13:51:39.439Z,21.09
2023-04-30T13:54:06.444Z,20.74
2023-04-30T13:56:33.403Z,20.77
2023-04-30T13:59:00.480Z,20.77
2023-04-30T14:01:27.575Z,21.01
2023-04-30T14:03:55.400Z,20.84
2023-04-30T14:06:23.000Z,20.76
2023-04-30T14:08:49.926Z,20.65
2023-04-30T14:11:16.916Z,20.76
2023-04-30T14:13:43.927Z,21.01
2023-04-30T14:16:10.865Z,20.92
2023-04-30T14:18:37.822Z,20.92
2023-04-30T14:21:04.747Z,20.90
2023-04-30T14:23:33.903Z,21.04
2023-04-30T14:26:00.992Z,21.14
2023-04-30T14:28:27.906Z,21.00
2023-04-30T14:30:54.915Z,20.81
2023-04-30T14:33:21.816Z,20.88
2023-04-30T14:35:48.812Z,20.96
2023-04-30T14:38:15.992Z,21.07
2023-04-30T14:40:44.922Z,21.21
2023-04-30T14:43:11.950Z,21.07
2023-04-30T14:45:40.014Z,20.99
2023-04-30T14:48:07.352Z,20.93
2023-04-30T14:50:34.264Z,21.03
2023-04-30T14:53:01.496Z,21.12
2023-04-30T14:55:28.485Z,21.14
2023-04-30T14:57:55.979Z,21.04
2023-04-30T15:00:23.040Z,20.80
2023-04-30T15:02:50.005Z,20.94
2023-04-30T15:05:17.143Z,21.29
2023-04-30T15:07:44.055Z,21.05
2023-04-30T15:10:11.322Z,20.76
2023-04-30T15:12:39.508Z,20.77
2023-04-30T15:15:07.944Z,20.97
2023-04-30T15:17:36.904Z,20.84
2023-04-30T15:20:05.489Z,20.88
2023-04-30T15:22:33.418Z,20.94
2023-04-30T15:25:00.504Z,20.91
2023-04-30T15:27:28.502Z,21.15
2023-04-30T15:29:55.836Z,21.06
2023-04-30T15:32:22.995Z,21.30
2023-04-30T15:34:49.902Z,21.32
2023-04-30T15:37:16.791Z,21.08
2023-04-30T15:39:43.761Z,21.11
2023-04-30T15:42:10.708Z,21.29
2023-04-30T15:44:37.590Z,21.33
2023-04-30T15:47:04.623Z,21.29
2023-04-30T15:49:31.621Z,21.13
2023-04-30T15:52:00.593Z,21.15
2023-04-30T15:54:27.762Z,21.32
2023-04-30T15:56:54.737Z,21.06
2023-04-30T15:59:22.146Z,20.88
2023-04-30T16:01:49.124Z,20.79
2023-04-30T16:04:16.172Z,20.87
2023-04-30T16:06:43.174Z,20.64
2023-04-30T16:09:10.888Z,20.43
2023-04-30T16:11:41.490Z,20.46
2023-04-30T16:14:08.632Z,20.46
2023-04-30T16:16:35.584Z,20.30
2023-04-30T16:19:03.282Z,20.39
2023-04-30T16:21:34.559Z,20.45
2023-04-30T16:24:02.816Z,20.22
2023-04-30T16:26:30.588Z,20.02
2023-04-30T16:28:57.486Z,19.88
2023-04-30T16:31:24.404Z,19.91
2023-04-30T16:33:51.344Z,20.06
2023-04-30T16:36:18.398Z,19.97
2023-04-30T16:38:46.435Z,19.84
2023-04-30T16:41:15.942Z,19.99
2023-04-30T16:43:43.795Z,20.03
2023-04-30T16:46:10.994Z,19.79
2023-04-30T16:48:38.325Z,19.57
2023-04-30T16:51:06.577Z,19.41
2023-04-30T16:53:33.978Z,19.62
2023-04-30T16:56:01.054Z,19.28
2023-04-30T16:58:30.278Z,19.26
2023-04-30T17:00:57.381Z,19.21
2023-04-30T17:03:25.045Z,19.16
2023-04-30T17:05:53.438Z,19.27
2023-04-30T17:08:20.879Z,19.04
2023-04-30T17:10:47.828Z,18.73
2023-04-30T17:13:15.014Z,18.91
2023-04-30T17:15:43.282Z,18.72
2023-04-30T17:18:11.864Z,18.76
2023-04-30T17:20:39.220Z,18.80
2023-04-30T17:23:06.526Z,18.69
2023-04-30T17:25:33.705Z,18.55
2023-04-30T17:28:01.700Z,18.58
2023-04-30T17:30:29.272Z,18.63
2023-04-30T17:32:56.653Z,18.73
2023-04-30T17:35:23.694Z,18.80
2023-04-30T17:37:50.642Z,18.71
2023-04-30T17:40:17.607Z,18.78
2023-04-30T17:42:44.510Z,18.60
2023-04-30T17:45:11.811Z,18.66
2023-04-30T17:47:38.880Z,18.60
2023-04-30T17:50:08.537Z,18.50
2023-04-30T17:52:38.479Z,18.51
2023-04-30T17:55:09.334Z,18.43
2023-04-30T17:57:37.860Z,18.51
2023-04-30T18:00:07.160Z,18.40
2023-04-30T18:02:44.155Z,18.36
2023-04-30T18:05:11.691Z,18.30
2023-04-30T18:07:38.594Z,18.20
2023-04-30T18:10:06.294Z,18.11
2023-04-30T18:12:33.260Z,18.17
2023-04-30T18:15:00.629Z,18.15
2023-04-30T18:17:27.631Z,17.95
2023-04-30T18:19:55.051Z,17.85
2023-04-30T18:22:22.151Z,17.87
2023-04-30T18:24:49.151Z,17.71
2023-04-30T18:27:16.132Z,17.67
2023-04-30T18:29:44.106Z,17.60
2023-04-30T18:32:12.735Z,17.28
2023-04-30T18:34:39.786Z,17.36
2023-04-30T18:37:06.890Z,17.30
2023-04-30T18:39:33.861Z,17.21
2023-04-30T18:42:03.353Z,17.21
2023-04-30T18:44:32.083Z,17.20
2023-04-30T18:46:59.059Z,17.13
2023-04-30T18:49:26.047Z,17.16
2023-04-30T18:51:55.104Z,17.13
2023-04-30T18:54:22.349Z,17.11
2023-04-30T18:56:49.597Z,17.02
2023-04-30T18:59:16.889Z,16.80
2023-04-30T19:01:44.029Z,16.63
2023-04-30T19:04:13.790Z,16.80
2023-04-30T19:06:40.754Z,16.89
2023-04-30T19:09:09.278Z,16.67
2023-04-30T19:11:36.392Z,16.66
2023-04-30T19:14:03.805Z,16.60
2023-04-30T19:16:30.778Z,16.71
2023-04-30T19:18:58.103Z,16.42
2023-04-30T19:21:25.657Z,16.52
2023-04-30T19:23:52.676Z,16.18
2023-04-30T19:26:20.196Z,16.14
2023-04-30T19:28:47.661Z,16.02
2023-04-30T19:31:14.806Z,15.72
2023-04-30T19:33:42.938Z,15.51
2023-04-30T19:36:10.540Z,15.54
2023-04-30T19:38:37.510Z,15.06
2023-04-30T19:41:04.406Z,15.30
2023-04-30T19:43:31.512Z,14.94
2023-04-30T19:45:59.333Z,14.96
2023-04-30T19:48:26.876Z,14.98
2023-04-30T19:50:54.577Z,14.93
2023-04-30T19:53:22.925Z,14.94
2023-04-30T19:55:51.115Z,14.82
2023-04-30T19:58:18.127Z,14.80
2023-04-30T20:00:45.813Z,14.89
2023-04-30T20:03:14.719Z,14.85
2023-04-30T20:05:42.221Z,14.24
2023-04-30T20:08:09.602Z,14.68
2023-04-30T20:10:38.371Z,14.49
2023-04-30T20:13:06.906Z,14.61
2023-04-30T20:15:34.080Z,14.50
2023-04-30T20:18:01.584Z,14.36
2023-04-30T20:20:29.624Z,14.48
2023-04-30T20:22:56.820Z,14.50
2023-04-30T20:25:34.163Z,14.65
2023-04-30T20:28:01.089Z,14.79
2023-04-30T20:30:29.007Z,14.68
2023-04-30T20:32:56.087Z,14.53
2023-04-30T20:35:23.912Z,14.66
2023-04-30T20:37:54.556Z,14.50
2023-04-30T20:40:21.943Z,14.48
2023-04-30T20:42:48.862Z,14.50
2023-04-30T20:45:17.899Z,14.38
2023-04-30T20:47:44.868Z,14.40
2023-04-30T20:50:16.494Z,14.24
2023-04-30T20:52:43.947Z,14.48
2023-04-30T20:55:11.542Z,14.39
2023-04-30T20:57:38.666Z,14.42
2023-04-30T21:00:06.758Z,14.49
2023-04-30T21:02:34.192Z,14.40
2023-04-30T21:05:05.997Z,14.52
2023-04-30T21:07:47.325Z,14.42
2023-04-30T21:10:14.419Z,13.99
2023-04-30T21:12:41.896Z,13.99
2023-04-30T21:15:09.740Z,13.92
2023-04-30T21:17:36.978Z,13.82
2023-04-30T21:20:04.240Z,13.66
2023-04-30T21:22:31.743Z,13.59
2023-04-30T21:24:58.683Z,13.74
2023-04-30T21:27:25.649Z,13.69
2023-04-30T21:29:52.735Z,13.68
2023-04-30T21:32:19.694Z,13.38
2023-04-30T21:34:46.617Z,13.62
2023-04-30T21:37:15.699Z,13.52
2023-04-30T21:39:44.067Z,13.45
2023-04-30T21:42:10.957Z,13.42
2023-04-30T21:44:37.963Z,13.44
2023-04-30T21:47:08.164Z,13.50
2023-04-30T21:49:35.726Z,13.60
2023-04-30T21:52:04.443Z,13.35
2023-04-30T21:54:31.364Z,13.48
2023-04-30T21:56:58.358Z,13.50
2023-04-30T21:59:25.401Z,13.51
2023-04-30T22:01:52.538Z,13.71
2023-04-30T22:04:21.548Z,13.74
2023-04-30T22:06:48.810Z,13.65
2023-04-30T22:09:15.792Z,13.59
2023-04-30T22:11:42.694Z,13.55
2023-04-30T22:14:09.582Z,13.46
2023-04-30T22:16:36.666Z,13.48
2023-04-30T22:19:09.791Z,13.52
2023-04-30T22:21:36.785Z,13.52
2023-04-30T22:24:03.840Z,13.55
2023-04-30T22:26:31.599Z,13.52
2023-04-30T22:28:58.773Z,13.43
2023-04-30T22:31:26.262Z,13.28
2023-04-30T22:33:53.243Z,13.26
2023-04-30T22:36:20.337Z,13.19
2023-04-30T22:38:47.424Z,13.20
2023-04-30T22:41:14.496Z,13.23
2023-04-30T22:43:41.809Z,13.25
2023-04-30T22:46:08.748Z,13.02
2023-04-30T22:48:35.687Z,12.85
2023-04-30T22:51:03.260Z,12.95
2023-04-30T22:53:30.321Z,12.91
2023-04-30T22:55:57.679Z,12.97
2023-04-30T22:58:24.564Z,12.93
2023-04-30T23:00:51.639Z,12.74
2023-04-30T23:03:18.588Z,12.69
2023-04-30T23:05:49.239Z,12.59
2023-04-30T23:08:16.184Z,12.33
2023-04-30T23:10:46.095Z,12.20
2023-04-30T23:13:13.036Z,11.92
2023-04-30T23:15:39.960Z,11.80
2023-04-30T23:18:06.923Z,11.70
2023-04-30T23:20:33.967Z,11.68
2023-04-30T23:23:00.857Z,11.67
2023-04-30T23:25:27.742Z,11.77
2023-04-30T23:27:54.700Z,11.70
2023-04-30T23:30:22.308Z,11.46
2023-04-30T23:32:49.193Z,11.56
2023-04-30T23:35:16.270Z,11.49
2023-04-30T23:37:43.140Z,11.41
2023-04-30T23:40:10.782Z,11.42
2023-04-30T23:42:37.676Z,11.18
2023-04-30T23:45:05.844Z,11.26
2023-04-30T23:47:36.680Z,11.37
2023-04-30T23:50:04.282Z,11.36
2023-04-30T23:52:31.882Z,11.39
2023-04-30T23:54:58.865Z,11.38
2023-04-30T23:57:27.511Z,11.30
2023-04-30T23:59:55.206Z,11.40
